Terminal Aerodrome Forecast
Issued by NWS

Home | Current Version | Previous Version | Text Only | Print | Product List | Glossary On
Versions: 1 2 3 4 5 6 7 8 9 10 11 12 13 14 15 16 17
000
FTUS44 KHGX 201722
TAFCXO
TAF
KCXO 201722Z 2018/2118 16011KT P6SM SCT050 SCT250
     FM210000 16004KT P6SM SCT090
     FM210600 VRB03KT 6SM BR SCT008
     FM210800 00000KT 2SM BR BKN008
      TEMPO 2111/2113 1/2SM FG OVC003
     FM211400 17008KT P6SM BKN015=

USA.gov is the U.S. government's official web portal to all federal, state and local government web resources and services.